
Distance (Route):
Temperature : 13.0°C
Humidity : 64.5%
Pressure : 0hPa| Receiver | Frames | First received | Last received |
|---|---|---|---|
| LZ4TU-5 | 108 | 2026-08-30 05:41:42 | 2026-08-30 07:02:07 |
| Receiver | Date | Latitude | Longitude | Direction | Speed | Altitude | Climb | Temperature | Humidity | Pressure | Voltage | Killtimer | Uptime | BKT | XDATA |
|---|---|---|---|---|---|---|---|---|---|---|---|---|---|---|---|
| LZ4TU-5 | 2026-08-30 07:02:07 | 42.45504 | 23.59972 | 185° | 20km/h | 2272m | -17.7m/s | 13.0°C | 64.5% | 0hPa | 0V | 00:00:00 | 00:00:00 | 00:00:00 | |
| LZ4TU-5 | 2026-08-30 07:01:58 | 42.45559 | 23.59975 | 180° | 26km/h | 2429m | -17.8m/s | 11.9°C | 64.9% | 0hPa | 0V | 08:18:00 | 00:00:00 | 00:00:00 | |
| LZ4TU-5 | 2026-08-30 07:01:53 | 42.45591 | 23.59978 | 182° | 24km/h | 2516m | -17.6m/s | 11.3°C | 67.0% | 0hPa | 0V | 08:18:00 | 00:00:00 | 00:00:00 | |
| LZ4TU-5 | 2026-08-30 07:01:48 | 42.45619 | 23.59982 | 194° | 20km/h | 2603m | -17.7m/s | 10.7°C | 68.3% | 0hPa | 0V | 08:18:00 | 00:00:00 | 00:00:00 | |
| LZ4TU-5 | 2026-08-30 07:01:43 | 42.45647 | 23.59993 | 202° | 26km/h | 2691m | -18.1m/s | 9.9°C | 71.9% | 0hPa | 0V | 08:18:00 | 00:00:00 | 00:00:00 | |
| LZ4TU-5 | 2026-08-30 07:01:38 | 42.45677 | 23.60008 | 198° | 24km/h | 2780m | -17.9m/s | 9.3°C | 69.8% | 0hPa | 0V | 08:18:00 | 00:00:00 | 00:00:00 | |
| LZ4TU-5 | 2026-08-30 07:01:34 | 42.45700 | 23.60019 | 200° | 27km/h | 2850m | -17.8m/s | 8.7°C | 69.4% | 0hPa | 0V | 08:18:00 | 00:00:00 | 00:00:00 | |
| LZ4TU-5 | 2026-08-30 07:01:29 | 42.45730 | 23.60034 | 209° | 22km/h | 2938m | -18.0m/s | 8.1°C | 71.3% | 0hPa | 0V | 08:18:00 | 00:00:00 | 00:00:00 | |
| LZ4TU-5 | 2026-08-30 07:01:25 | 42.45751 | 23.60047 | 215° | 24km/h | 3010m | -18.3m/s | 7.4°C | 76.6% | 0hPa | 0V | 08:18:00 | 00:00:00 | 00:00:00 | |
| LZ4TU-5 | 2026-08-30 07:01:21 | 42.45770 | 23.60061 | 207° | 24km/h | 3082m | -18.5m/s | 6.9°C | 80.9% | 0hPa | 0V | 08:18:00 | 00:00:00 | 00:00:00 | |
| LZ4TU-5 | 2026-08-30 07:01:16 | 42.45793 | 23.60076 | 207° | 16km/h | 3172m | -17.7m/s | 6.1°C | 87.3% | 0hPa | 0V | 08:18:00 | 00:00:00 | 00:00:00 | |
| LZ4TU-5 | 2026-08-30 07:01:12 | 42.45810 | 23.60088 | 203° | 18km/h | 3243m | -18.0m/s | 5.8°C | 86.2% | 0hPa | 0V | 00:00:00 | 00:00:00 | 00:00:00 | |
| LZ4TU-5 | 2026-08-30 07:01:07 | 42.45836 | 23.60092 | 181° | 22km/h | 3331m | -18.0m/s | 5.4°C | 82.4% | 0hPa | 0V | 00:00:00 | 00:00:00 | 00:00:00 | |
| LZ4TU-5 | 2026-08-30 07:01:03 | 42.45861 | 23.60090 | 179° | 24km/h | 3402m | -18.3m/s | 4.9°C | 81.6% | 0hPa | 0V | 00:00:00 | 00:00:00 | 00:00:00 | |
| LZ4TU-5 | 2026-08-30 07:00:59 | 42.45885 | 23.60084 | 159° | 26km/h | 3475m | -18.4m/s | 4.3°C | 82.5% | 0hPa | 0V | 00:00:00 | 00:00:00 | 00:00:00 | |
| LZ4TU-5 | 2026-08-30 07:00:54 | 42.45914 | 23.60068 | 155° | 26km/h | 3566m | -18.6m/s | 3.6°C | 85.5% | 0hPa | 0V | 00:00:00 | 00:00:00 | 00:00:00 | |
| LZ4TU-5 | 2026-08-30 07:00:50 | 42.45934 | 23.60057 | 157° | 18km/h | 3639m | -18.5m/s | 3.1°C | 87.6% | 0hPa | 0V | 00:00:00 | 00:00:00 | 00:00:00 | |
| LZ4TU-5 | 2026-08-30 07:00:45 | 42.45958 | 23.60043 | 158° | 18km/h | 3731m | -19.3m/s | 2.6°C | 86.4% | 0hPa | 0V | 00:00:00 | 00:00:00 | 00:00:00 | |
| LZ4TU-5 | 2026-08-30 06:54:24 | 42.48549 | 23.58140 | 162° | 51km/h | 12232m | -31.1m/s | -56.0°C | 24.8% | 0hPa | 0V | 00:00:00 | 00:00:00 | 00:00:00 | |
| LZ4TU-5 | 2026-08-30 06:54:19 | 42.48612 | 23.58103 | 157° | 53km/h | 12387m | -30.9m/s | -56.7°C | 20.9% | 0hPa | 0V | 00:00:00 | 00:00:00 | 00:00:00 | |
| LZ4TU-5 | 2026-08-30 06:54:14 | 42.48661 | 23.58068 | 152° | 57km/h | 12512m | -31.9m/s | -56.9°C | 17.9% | 0hPa | 0V | 00:00:00 | 00:00:00 | 00:00:00 | |
| LZ4TU-5 | 2026-08-30 06:52:51 | 42.49169 | 23.56966 | 107° | 35km/h | 15400m | -37.7m/s | -59.5°C | 2.8% | 0hPa | 0V | 08:26:00 | 00:00:00 | 00:00:00 | |
| LZ4TU-5 | 2026-08-30 06:52:46 | 42.49175 | 23.56907 | 86° | 31km/h | 15589m | -39.0m/s | -58.3°C | 2.6% | 0hPa | 0V | 08:26:00 | 00:00:00 | 00:00:00 | |
| LZ4TU-5 | 2026-08-30 06:52:42 | 42.49167 | 23.56862 | 72° | 37km/h | 15746m | -39.9m/s | -58.4°C | 2.5% | 0hPa | 0V | 00:00:00 | 00:00:00 | 00:00:00 | |
| LZ4TU-5 | 2026-08-30 06:51:08 | 42.49212 | 23.56224 | 282° | 11km/h | 20027m | -53.7m/s | -56.9°C | 1.9% | 0hPa | 0V | 00:00:00 | 00:00:00 | 00:00:00 | |
| LZ4TU-5 | 2026-08-30 06:51:03 | 42.49208 | 23.56245 | 294° | 16km/h | 20297m | -54.4m/s | -55.4°C | 1.5% | 0hPa | 0V | 00:00:00 | 00:00:00 | 00:00:00 | |
| LZ4TU-5 | 2026-08-30 06:49:31 | 42.49090 | 23.56599 | 342° | 7km/h | 26241m | -74.1m/s | -46.2°C | 1.0% | 0hPa | 0V | 00:00:00 | 00:00:00 | 00:00:00 | |
| LZ4TU-5 | 2026-08-30 06:49:27 | 42.49083 | 23.56601 | 356° | 11km/h | 26537m | -73.6m/s | -46.3°C | 1.0% | 0hPa | 0V | 00:00:00 | 00:00:00 | 00:00:00 | |
| LZ4TU-5 | 2026-08-30 06:47:15 | 42.48777 | 23.56581 | 3° | 29km/h | 26707m | 5.6m/s | -46.7°C | 1.1% | 0hPa | 0V | 00:00:00 | 00:00:00 | 00:00:00 | |
| LZ4TU-5 | 2026-08-30 06:47:10 | 42.48753 | 23.56583 | 335° | 7km/h | 26676m | 6.7m/s | -46.9°C | 1.0% | 0hPa | 0V | 00:00:00 | 00:00:00 | 00:00:00 | |
| LZ4TU-5 | 2026-08-30 06:45:37 | 42.48626 | 23.56707 | 0° | 0km/h | 26084m | 3.4m/s | -47.3°C | 1.1% | 0hPa | 0V | 00:00:00 | 00:00:00 | 00:00:00 | |
| LZ4TU-5 | 2026-08-30 06:45:33 | 42.48627 | 23.56699 | 117° | 9km/h | 26060m | 5.1m/s | -47.4°C | 1.1% | 0hPa | 0V | 00:00:00 | 00:00:00 | 00:00:00 | |
| LZ4TU-5 | 2026-08-30 06:44:09 | 42.48563 | 23.56803 | 273° | 20km/h | 25549m | 4.8m/s | -49.9°C | 1.2% | 0hPa | 0V | 00:00:00 | 00:00:00 | 00:00:00 | |
| LZ4TU-5 | 2026-08-30 06:44:04 | 42.48564 | 23.56830 | 327° | 11km/h | 25518m | 6.1m/s | -50.1°C | 1.2% | 0hPa | 0V | 00:00:00 | 00:00:00 | 00:00:00 | |
| LZ4TU-5 | 2026-08-30 06:42:28 | 42.48443 | 23.57212 | 295° | 11km/h | 24914m | 8.3m/s | -51.8°C | 1.3% | 0hPa | 0V | 00:00:00 | 00:00:00 | 00:00:00 | |
| LZ4TU-5 | 2026-08-30 06:40:52 | 42.48307 | 23.57610 | 294° | 9km/h | 24306m | 7.0m/s | -53.2°C | 1.4% | 0hPa | 0V | 00:00:00 | 00:00:00 | 00:00:00 | |
| LZ4TU-5 | 2026-08-30 06:40:48 | 42.48302 | 23.57622 | 329° | 11km/h | 24281m | 5.4m/s | -53.4°C | 1.5% | 0hPa | 0V | 00:00:00 | 00:00:00 | 00:00:00 | |
| LZ4TU-5 | 2026-08-30 06:39:21 | 42.47927 | 23.58192 | 295° | 38km/h | 23727m | 4.0m/s | -53.9°C | 1.5% | 0hPa | 0V | 00:00:00 | 00:00:00 | 00:00:00 | |
| LZ4TU-5 | 2026-08-30 06:39:17 | 42.47914 | 23.58245 | 289° | 38km/h | 23703m | 7.5m/s | -54.3°C | 1.5% | 0hPa | 0V | 00:00:00 | 00:00:00 | 00:00:00 | |
| LZ4TU-5 | 2026-08-30 06:37:52 | 42.47857 | 23.58901 | 270° | 24km/h | 23189m | 6.6m/s | -54.7°C | 1.6% | 0hPa | 0V | 00:00:00 | 00:00:00 | 00:00:00 | |
| LZ4TU-5 | 2026-08-30 06:37:48 | 42.47857 | 23.58930 | 282° | 15km/h | 23165m | 5.5m/s | -54.6°C | 1.6% | 0hPa | 0V | 00:00:00 | 00:00:00 | 00:00:00 | |
| LZ4TU-5 | 2026-08-30 06:36:15 | 42.47772 | 23.59523 | 241° | 16km/h | 22604m | 7.9m/s | -56.5°C | 1.7% | 0hPa | 0V | 00:00:00 | 00:00:00 | 00:00:00 | |
| LZ4TU-5 | 2026-08-30 06:36:10 | 42.47778 | 23.59540 | 245° | 11km/h | 22578m | 5.0m/s | -56.5°C | 1.7% | 0hPa | 0V | 00:00:00 | 00:00:00 | 00:00:00 | |
| LZ4TU-5 | 2026-08-30 06:34:44 | 42.47706 | 23.60084 | 229° | 24km/h | 22038m | 3.8m/s | -56.4°C | 1.7% | 0hPa | 0V | 00:00:00 | 00:00:00 | 00:00:00 | |
| LZ4TU-5 | 2026-08-30 06:34:40 | 42.47726 | 23.60111 | 225° | 29km/h | 22015m | 8.4m/s | -56.5°C | 1.8% | 0hPa | 0V | 00:00:00 | 00:00:00 | 00:00:00 | |
| LZ4TU-5 | 2026-08-30 06:33:10 | 42.47837 | 23.60193 | 63° | 9km/h | 21481m | 8.2m/s | -56.1°C | 1.7% | 0hPa | 0V | 00:00:00 | 00:00:00 | 00:00:00 | |
| LZ4TU-5 | 2026-08-30 06:33:06 | 42.47832 | 23.60180 | 71° | 11km/h | 21457m | 4.1m/s | -55.9°C | 1.7% | 0hPa | 0V | 00:00:00 | 00:00:00 | 00:00:00 | |
| LZ4TU-5 | 2026-08-30 06:31:41 | 42.47717 | 23.60275 | 288° | 13km/h | 20960m | 5.2m/s | -57.2°C | 1.7% | 0hPa | 0V | 00:00:00 | 00:00:00 | 00:00:00 | |
| LZ4TU-5 | 2026-08-30 06:31:37 | 42.47713 | 23.60290 | 281° | 7km/h | 20938m | 6.3m/s | -57.3°C | 1.8% | 0hPa | 0V | 00:00:00 | 00:00:00 | 00:00:00 | |
| LZ4TU-5 | 2026-08-30 06:30:09 | 42.47365 | 23.60566 | 285° | 27km/h | 20422m | 8.7m/s | -56.4°C | 1.8% | 0hPa | 0V | 00:00:00 | 00:00:00 | 00:00:00 | |
| LZ4TU-5 | 2026-08-30 06:30:04 | 42.47357 | 23.60610 | 280° | 22km/h | 20390m | 8.1m/s | -56.2°C | 1.7% | 0hPa | 0V | 00:00:00 | 00:00:00 | 00:00:00 | |
| LZ4TU-5 | 2026-08-30 06:28:32 | 42.47477 | 23.60887 | 219° | 15km/h | 19861m | 7.4m/s | -58.3°C | 1.9% | 0hPa | 0V | 00:00:00 | 00:00:00 | 00:00:00 | |
| LZ4TU-5 | 2026-08-30 06:28:28 | 42.47478 | 23.60896 | 313° | 9km/h | 19839m | 5.3m/s | -58.3°C | 1.9% | 0hPa | 0V | 00:00:00 | 00:00:00 | 00:00:00 | |
| LZ4TU-5 | 2026-08-30 06:27:03 | 42.47514 | 23.61013 | 225° | 11km/h | 19333m | 7.6m/s | -57.5°C | 1.9% | 0hPa | 0V | 00:00:00 | 00:00:00 | 00:00:00 | |
| LZ4TU-5 | 2026-08-30 06:26:59 | 42.47523 | 23.61024 | 217° | 13km/h | 19309m | 6.4m/s | -57.5°C | 1.9% | 0hPa | 0V | 00:00:00 | 00:00:00 | 00:00:00 | |
| LZ4TU-5 | 2026-08-30 06:25:32 | 42.47538 | 23.60891 | 356° | 26km/h | 18803m | 6.0m/s | -58.6°C | 2.1% | 0hPa | 0V | 00:00:00 | 00:00:00 | 00:00:00 | |
| LZ4TU-5 | 2026-08-30 06:25:28 | 42.47517 | 23.60896 | 352° | 18km/h | 18781m | 6.6m/s | -58.4°C | 2.0% | 0hPa | 0V | 00:00:00 | 00:00:00 | 00:00:00 | |
| LZ4TU-5 | 2026-08-30 06:24:02 | 42.47362 | 23.60892 | 133° | 15km/h | 18273m | 4.5m/s | -58.5°C | 2.2% | 0hPa | 0V | 00:00:00 | 00:00:00 | 00:00:00 | |
| LZ4TU-5 | 2026-08-30 06:23:58 | 42.47369 | 23.60876 | 122° | 11km/h | 18251m | 7.6m/s | -58.6°C | 2.2% | 0hPa | 0V | 00:00:00 | 00:00:00 | 00:00:00 | |
| LZ4TU-5 | 2026-08-30 06:22:30 | 42.47538 | 23.60240 | 51° | 22km/h | 17751m | 4.9m/s | -60.3°C | 2.6% | 0hPa | 0V | 00:00:00 | 00:00:00 | 00:00:00 | |
| LZ4TU-5 | 2026-08-30 06:22:26 | 42.47532 | 23.60218 | 113° | 15km/h | 17727m | 4.3m/s | -60.1°C | 2.6% | 0hPa | 0V | 00:00:00 | 00:00:00 | 00:00:00 | |
| LZ4TU-5 | 2026-08-30 06:20:59 | 42.47717 | 23.59744 | 116° | 18km/h | 17226m | 5.0m/s | -58.7°C | 2.5% | 0hPa | 0V | 00:00:00 | 00:00:00 | 00:00:00 | |
| LZ4TU-5 | 2026-08-30 06:20:54 | 42.47732 | 23.59705 | 123° | 35km/h | 17197m | 6.0m/s | -58.4°C | 2.6% | 0hPa | 0V | 00:00:00 | 00:00:00 | 00:00:00 | |
| LZ4TU-5 | 2026-08-30 06:20:50 | 42.47749 | 23.59662 | 116° | 31km/h | 17175m | 3.1m/s | -58.2°C | 2.5% | 0hPa | 0V | 00:00:00 | 00:00:00 | 00:00:00 | |
| LZ4TU-5 | 2026-08-30 06:19:25 | 42.48107 | 23.58480 | 118° | 58km/h | 16702m | 6.9m/s | -59.3°C | 2.8% | 0hPa | 0V | 00:00:00 | 00:00:00 | 00:00:00 | |
| LZ4TU-5 | 2026-08-30 06:19:21 | 42.48132 | 23.58404 | 110° | 62km/h | 16679m | 5.6m/s | -59.6°C | 2.8% | 0hPa | 0V | 00:00:00 | 00:00:00 | 00:00:00 | |
| LZ4TU-5 | 2026-08-30 06:17:51 | 42.48276 | 23.56753 | 75° | 58km/h | 16155m | 7.9m/s | -59.3°C | 2.9% | 0hPa | 0V | 00:00:00 | 00:00:00 | 00:00:00 | |
| LZ4TU-5 | 2026-08-30 06:16:22 | 42.48019 | 23.55550 | 108° | 38km/h | 15626m | 3.5m/s | -59.7°C | 3.1% | 0hPa | 0V | 00:00:00 | 00:00:00 | 00:00:00 | |
| LZ4TU-5 | 2026-08-30 06:14:56 | 42.48319 | 23.54560 | 124° | 35km/h | 15167m | 6.4m/s | -59.9°C | 3.3% | 0hPa | 0V | 00:00:00 | 00:00:00 | 00:00:00 | |
| LZ4TU-5 | 2026-08-30 06:14:52 | 42.48337 | 23.54513 | 117° | 46km/h | 15146m | 4.2m/s | -59.8°C | 3.5% | 0hPa | 0V | 00:00:00 | 00:00:00 | 00:00:00 | |
| LZ4TU-5 | 2026-08-30 06:13:27 | 42.48841 | 23.53257 | 122° | 69km/h | 14683m | 5.9m/s | -59.8°C | 4.4% | 0hPa | 0V | 00:00:00 | 00:00:00 | 00:00:00 | |
| LZ4TU-5 | 2026-08-30 06:13:23 | 42.48875 | 23.53173 | 117° | 73km/h | 14658m | 8.0m/s | -59.6°C | 4.4% | 0hPa | 0V | 00:00:00 | 00:00:00 | 00:00:00 | |
| LZ4TU-5 | 2026-08-30 06:11:56 | 42.49197 | 23.51559 | 113° | 44km/h | 14174m | 4.2m/s | -58.9°C | 5.9% | 0hPa | 0V | 00:00:00 | 00:00:00 | 00:00:00 | |
| LZ4TU-5 | 2026-08-30 06:10:31 | 42.49596 | 23.50563 | 122° | 47km/h | 13707m | 5.1m/s | -57.8°C | 8.7% | 0hPa | 0V | 00:00:00 | 00:00:00 | 00:00:00 | |
| LZ4TU-5 | 2026-08-30 06:10:27 | 42.49619 | 23.50500 | 113° | 53km/h | 13682m | 7.3m/s | -57.8°C | 8.8% | 0hPa | 0V | 00:00:00 | 00:00:00 | 00:00:00 | |
| LZ4TU-5 | 2026-08-30 06:09:01 | 42.49957 | 23.49383 | 111° | 38km/h | 13230m | 5.6m/s | -54.7°C | 8.7% | 0hPa | 0V | 00:00:00 | 00:00:00 | 00:00:00 | |
| LZ4TU-5 | 2026-08-30 06:08:57 | 42.49967 | 23.49336 | 108° | 37km/h | 13209m | 4.6m/s | -54.6°C | 9.1% | 0hPa | 0V | 00:00:00 | 00:00:00 | 00:00:00 | |
| LZ4TU-5 | 2026-08-30 06:07:28 | 42.50741 | 23.48158 | 143° | 58km/h | 12765m | 5.2m/s | -55.9°C | 18.6% | 0hPa | 0V | 00:00:00 | 00:00:00 | 00:00:00 | |
| LZ4TU-5 | 2026-08-30 06:06:02 | 42.51899 | 23.47212 | 162° | 66km/h | 12298m | 7.0m/s | -57.0°C | 46.3% | 0hPa | 0V | 00:00:00 | 00:00:00 | 00:00:00 | |
| LZ4TU-5 | 2026-08-30 06:05:58 | 42.51962 | 23.47181 | 158° | 68km/h | 12278m | 3.4m/s | -56.9°C | 45.7% | 0hPa | 0V | 00:00:00 | 00:00:00 | 00:00:00 | |
| LZ4TU-5 | 2026-08-30 06:04:30 | 42.53190 | 23.46483 | 152° | 47km/h | 11780m | 2.6m/s | -54.2°C | 47.2% | 0hPa | 0V | 00:00:00 | 00:00:00 | 00:00:00 | |
| LZ4TU-5 | 2026-08-30 06:04:26 | 42.53232 | 23.46451 | 152° | 46km/h | 11761m | 2.0m/s | -54.0°C | 47.8% | 0hPa | 0V | 00:00:00 | 00:00:00 | 00:00:00 | |
| LZ4TU-5 | 2026-08-30 06:02:57 | 42.54079 | 23.45880 | 141° | 40km/h | 11308m | 9.5m/s | -50.5°C | 42.5% | 0hPa | 0V | 00:00:00 | 00:00:00 | 00:00:00 | |
| LZ4TU-5 | 2026-08-30 06:01:27 | 42.54775 | 23.45273 | 153° | 46km/h | 10822m | 6.5m/s | -46.5°C | 41.9% | 0hPa | 0V | 00:00:00 | 00:00:00 | 00:00:00 | |
| LZ4TU-5 | 2026-08-30 06:00:02 | 42.55680 | 23.44652 | 152° | 46km/h | 10399m | 4.9m/s | -43.0°C | 31.4% | 0hPa | 0V | 00:00:00 | 00:00:00 | 00:00:00 | |
| LZ4TU-5 | 2026-08-30 05:59:58 | 42.55719 | 23.44616 | 144° | 49km/h | 10380m | 5.6m/s | -42.9°C | 30.7% | 0hPa | 0V | 00:00:00 | 00:00:00 | 00:00:00 | |
| LZ4TU-5 | 2026-08-30 05:58:32 | 42.56631 | 23.43916 | 149° | 53km/h | 9962m | 5.4m/s | -39.1°C | 24.2% | 0hPa | 0V | 00:00:00 | 00:00:00 | 00:00:00 | |
| LZ4TU-5 | 2026-08-30 05:58:28 | 42.56677 | 23.43879 | 151° | 53km/h | 9943m | 6.4m/s | -39.2°C | 24.9% | 0hPa | 0V | 00:00:00 | 00:00:00 | 00:00:00 | |
| LZ4TU-5 | 2026-08-30 05:57:00 | 42.57649 | 23.43152 | 145° | 42km/h | 9495m | 5.1m/s | -36.4°C | 21.0% | 0hPa | 0V | 00:00:00 | 00:00:00 | 00:00:00 | |
| LZ4TU-5 | 2026-08-30 05:56:56 | 42.57683 | 23.43122 | 147° | 38km/h | 9474m | 6.7m/s | -36.2°C | 20.6% | 0hPa | 0V | 00:00:00 | 00:00:00 | 00:00:00 | |
| LZ4TU-5 | 2026-08-30 05:55:32 | 42.58265 | 23.42545 | 149° | 37km/h | 9054m | 5.5m/s | -32.6°C | 18.4% | 0hPa | 0V | 00:00:00 | 00:00:00 | 00:00:00 | |
| LZ4TU-5 | 2026-08-30 05:55:28 | 42.58293 | 23.42517 | 142° | 31km/h | 9034m | 5.6m/s | -32.4°C | 18.6% | 0hPa | 0V | 00:00:00 | 00:00:00 | 00:00:00 | |
| LZ4TU-5 | 2026-08-30 05:53:59 | 42.59052 | 23.41830 | 154° | 42km/h | 8601m | 6.3m/s | -28.6°C | 14.0% | 0hPa | 0V | 00:00:00 | 00:00:00 | 00:00:00 | |
| LZ4TU-5 | 2026-08-30 05:53:55 | 42.59086 | 23.41802 | 148° | 38km/h | 8578m | 5.2m/s | -28.4°C | 14.4% | 0hPa | 0V | 00:00:00 | 00:00:00 | 00:00:00 | |
| LZ4TU-5 | 2026-08-30 05:52:15 | 42.59951 | 23.41234 | 161° | 31km/h | 8037m | 6.4m/s | -23.4°C | 8.1% | 0hPa | 0V | 00:00:00 | 00:00:00 | 00:00:00 | |
| LZ4TU-5 | 2026-08-30 05:52:11 | 42.59984 | 23.41212 | 147° | 40km/h | 8017m | 7.6m/s | -23.2°C | 7.9% | 0hPa | 0V | 00:00:00 | 00:00:00 | 00:00:00 | |
| LZ4TU-5 | 2026-08-30 05:50:37 | 42.60755 | 23.40737 | 149° | 38km/h | 7458m | 2.4m/s | -18.9°C | 4.7% | 0hPa | 0V | 00:00:00 | 00:00:00 | 00:00:00 | |
| LZ4TU-5 | 2026-08-30 05:50:32 | 42.60789 | 23.40710 | 151° | 38km/h | 7435m | 7.1m/s | -18.9°C | 4.3% | 0hPa | 0V | 00:00:00 | 00:00:00 | 00:00:00 | |
| LZ4TU-5 | 2026-08-30 05:50:28 | 42.60821 | 23.40670 | 130° | 33km/h | 7407m | 4.8m/s | -18.6°C | 3.6% | 0hPa | 0V | 00:00:00 | 00:00:00 | 00:00:00 | |
| LZ4TU-5 | 2026-08-30 05:48:59 | 42.61515 | 23.40210 | 146° | 42km/h | 6917m | 6.1m/s | -16.3°C | 7.4% | 0hPa | 0V | 00:00:00 | 00:00:00 | 00:00:00 | |
| LZ4TU-5 | 2026-08-30 05:47:33 | 42.61718 | 23.39894 | 91° | 9km/h | 6405m | 2.4m/s | -13.0°C | 35.6% | 0hPa | 0V | 00:00:00 | 00:00:00 | 00:00:00 | |
| LZ4TU-5 | 2026-08-30 05:47:29 | 42.61719 | 23.39880 | 104° | 15km/h | 6383m | 5.8m/s | -12.8°C | 0% | 0hPa | 0V | 00:00:00 | 00:00:00 | 00:00:00 | |
| LZ4TU-5 | 2026-08-30 05:46:02 | 42.61742 | 23.39597 | 143° | 16km/h | 5872m | 7.1m/s | -10.1°C | 0% | 0hPa | 0V | 00:00:00 | 00:00:00 | 00:00:00 | |
| LZ4TU-5 | 2026-08-30 05:45:58 | 42.61759 | 23.39584 | 136° | 24km/h | 5851m | 3.9m/s | -9.9°C | 0% | 0hPa | 0V | 00:00:00 | 00:00:00 | 00:00:00 | |
| LZ4TU-5 | 2026-08-30 05:44:30 | 42.62125 | 23.39190 | 140° | 18km/h | 5308m | 6.3m/s | -6.8°C | 0% | 0hPa | 0V | 00:00:00 | 00:00:00 | 00:00:00 | |
| LZ4TU-5 | 2026-08-30 05:43:07 | 42.62443 | 23.38985 | 158° | 24km/h | 4799m | 8.1m/s | -3.2°C | 0% | 0hPa | 0V | 00:00:00 | 00:00:00 | 00:00:00 | |
| LZ4TU-5 | 2026-08-30 05:43:03 | 42.62461 | 23.38978 | 170° | 11km/h | 4776m | 6.2m/s | 0°C | 0% | 0hPa | 0V | 00:00:00 | 00:00:00 | 00:00:00 | |
| LZ4TU-5 | 2026-08-30 05:41:42 | 42.62784 | 23.38957 | 189° | 18km/h | 4313m | 2.9m/s | 0°C | 0% | 0hPa | 0V | 00:00:00 | 00:00:00 | 00:00:00 |